PWSweather.com
Personal Weather Stations
Station Observations
BREEJEDURP
'sGravenzande, WestlandNL

'sGravenzandeWestlandNL

Lat: 52.00095260000001, Lon: 4.174256600000035

Elevation: 3

Station Type: Davis Vantage Pro2 Plus

www.breejedurp.nl

High Low Average
Temperature 47.1°F8.4°C 42.6°F5.9°C 44.6°F7.0°C
Dew Point 43.1°F6.2°C 39.3°F4.1°C 41.0°F5.0°C
Winds 25.0 mph 40.2 kmh Calm Calm 9.0 mph SW14.5 kmh SW
Wind Gusts 37.0 mph59.5 kmh 2.0 mph3.2 kmh 14.0 mph22.5 kmh
Humidity 94% 80% 87%
Pressure 29.58 in1001.7 mb 29.36 in994.2 mb -
Precipitation 0.09 in2.3 mm - -
Hour Temp Dew Point Humidity Winds Wind Gusts Pressure Precip Precip Rate Daily Precip Total
12:04 AM 47.1°F8.4°C 41.9°F5.5°C 82% 15.0 mph SW24.1 kmh SW 24.0 mph38.6 kmh 29.38 in994.9 mb 0.00 in0.0 mm 0.00 in0.0 mm 0.00 in0.0 mm
12:09 AM 46.9°F8.3°C 41.7°F5.4°C 82% 12.0 mph S19.3 kmh S 18.0 mph29.0 kmh 29.38 in994.9 mb 0.00 in0.0 mm 0.00 in0.0 mm 0.00 in0.0 mm
12:14 AM 47.1°F8.4°C 42.5°F5.8°C 84% 14.0 mph SSW22.5 kmh SSW 20.0 mph32.2 kmh 29.38 in994.9 mb 0.00 in0.0 mm 0.00 in0.0 mm 0.00 in0.0 mm
12:19 AM 46.9°F8.3°C 42.7°F5.9°C 85% 13.0 mph SSW20.9 kmh SSW 21.0 mph33.8 kmh 29.38 in994.9 mb 0.00 in0.0 mm 0.00 in0.0 mm 0.00 in0.0 mm
12:24 AM 46.8°F8.2°C 42.2°F5.7°C 84% 13.0 mph S20.9 kmh S 20.0 mph32.2 kmh 29.38 in994.9 mb 0.00 in0.0 mm 0.00 in0.0 mm 0.00 in0.0 mm
12:29 AM 46.8°F8.2°C 42.2°F5.7°C 84% 11.0 mph S17.7 kmh S 17.0 mph27.4 kmh 29.38 in994.9 mb 0.00 in0.0 mm 0.00 in0.0 mm 0.00 in0.0 mm
12:34 AM 46.8°F8.2°C 42.5°F5.8°C 85% 11.0 mph S17.7 kmh S 19.0 mph30.6 kmh 29.38 in994.9 mb 0.00 in0.0 mm 0.00 in0.0 mm 0.00 in0.0 mm
12:39 AM 46.8°F8.2°C 42.2°F5.7°C 84% 12.0 mph SW19.3 kmh SW 17.0 mph27.4 kmh 29.38 in994.9 mb 0.00 in0.0 mm 0.00 in0.0 mm 0.00 in0.0 mm
12:44 AM 46.8°F8.2°C 41.9°F5.5°C 83% 9.0 mph S14.5 kmh S 15.0 mph24.1 kmh 29.38 in994.9 mb 0.00 in0.0 mm 0.00 in0.0 mm 0.00 in0.0 mm
12:49 AM 46.8°F8.2°C 41.6°F5.3°C 82% 14.0 mph S22.5 kmh S 23.0 mph37.0 kmh 29.37 in994.6 mb 0.00 in0.0 mm 0.00 in0.0 mm 0.00 in0.0 mm
12:54 AM 46.6°F8.1°C 41.7°F5.4°C 83% 15.0 mph SW24.1 kmh SW 26.0 mph41.8 kmh 29.37 in994.6 mb 0.00 in0.0 mm 0.00 in0.0 mm 0.01 in0.3 mm
12:59 AM 46.6°F8.1°C 41.7°F5.4°C 83% 14.0 mph SSW22.5 kmh SSW 22.0 mph35.4 kmh 29.37 in994.6 mb 0.00 in0.0 mm 0.00 in0.0 mm 0.01 in0.3 mm
01:04 AM 46.6°F8.1°C 41.4°F5.2°C 82% 15.0 mph SSW24.1 kmh SSW 26.0 mph41.8 kmh 29.37 in994.6 mb 0.00 in0.0 mm 0.00 in0.0 mm 0.01 in0.3 mm
01:09 AM 46.6°F8.1°C 41.4°F5.2°C 82% 19.0 mph SSW30.6 kmh SSW 30.0 mph48.3 kmh 29.37 in994.6 mb 0.00 in0.0 mm 0.00 in0.0 mm 0.01 in0.3 mm
01:14 AM 46.8°F8.2°C 41.6°F5.3°C 82% 15.0 mph SW24.1 kmh SW 31.0 mph49.9 kmh 29.37 in994.6 mb 0.00 in0.0 mm 0.00 in0.0 mm 0.01 in0.3 mm
01:19 AM 46.8°F8.2°C 41.6°F5.3°C 82% 9.0 mph SE14.5 kmh SE 22.0 mph35.4 kmh 29.37 in994.6 mb 0.00 in0.0 mm 0.00 in0.0 mm 0.01 in0.3 mm
01:24 AM 46.9°F8.3°C 41.7°F5.4°C 82% 15.0 mph S24.1 kmh S 25.0 mph40.2 kmh 29.37 in994.6 mb 0.00 in0.0 mm 0.00 in0.0 mm 0.01 in0.3 mm
01:29 AM 46.8°F8.2°C 41.9°F5.5°C 83% 12.0 mph SSW19.3 kmh SSW 20.0 mph32.2 kmh 29.36 in994.2 mb 0.00 in0.0 mm 0.00 in0.0 mm 0.01 in0.3 mm
01:34 AM 46.6°F8.1°C 42.0°F5.6°C 84% 18.0 mph SW29.0 kmh SW 23.0 mph37.0 kmh 29.37 in994.6 mb 0.00 in0.0 mm 0.00 in0.0 mm 0.01 in0.3 mm
01:39 AM 46.6°F8.1°C 42.3°F5.7°C 85% 17.0 mph SW27.4 kmh SW 26.0 mph41.8 kmh 29.37 in994.6 mb 0.00 in0.0 mm 0.00 in0.0 mm 0.01 in0.3 mm
01:44 AM 46.2°F7.9°C 42.3°F5.7°C 86% 10.0 mph SSW16.1 kmh SSW 16.0 mph25.7 kmh 29.37 in994.6 mb 0.00 in0.0 mm 0.00 in0.0 mm 0.02 in0.5 mm
01:49 AM 45.7°F7.6°C 42.6°F5.9°C 89% 14.0 mph SW22.5 kmh SW 20.0 mph32.2 kmh 29.38 in994.9 mb 0.00 in0.0 mm 0.00 in0.0 mm 0.02 in0.5 mm
01:54 AM 45.3°F7.4°C 42.6°F5.9°C 90% 14.0 mph S22.5 kmh S 21.0 mph33.8 kmh 29.37 in994.6 mb 0.00 in0.0 mm 0.00 in0.0 mm 0.02 in0.5 mm
01:59 AM 45.7°F7.6°C 42.9°F6.1°C 90% 14.0 mph SW22.5 kmh SW 23.0 mph37.0 kmh 29.38 in994.9 mb 0.00 in0.0 mm 0.00 in0.0 mm 0.02 in0.5 mm
02:04 AM 45.7°F7.6°C 42.9°F6.1°C 90% 13.0 mph SW20.9 kmh SW 21.0 mph33.8 kmh 29.38 in994.9 mb 0.00 in0.0 mm 0.00 in0.0 mm 0.02 in0.5 mm
02:09 AM 45.9°F7.7°C 43.1°F6.2°C 90% 15.0 mph SW24.1 kmh SW 25.0 mph40.2 kmh 29.38 in994.9 mb 0.00 in0.0 mm 0.00 in0.0 mm 0.02 in0.5 mm
02:14 AM 45.9°F7.7°C 43.1°F6.2°C 90% 10.0 mph SW16.1 kmh SW 21.0 mph33.8 kmh 29.37 in994.6 mb 0.00 in0.0 mm 0.00 in0.0 mm 0.02 in0.5 mm
02:19 AM 46.0°F7.8°C 43.0°F6.1°C 89% 14.0 mph WSW22.5 kmh WSW 19.0 mph30.6 kmh 29.38 in994.9 mb 0.00 in0.0 mm 0.00 in0.0 mm 0.02 in0.5 mm
02:24 AM 45.9°F7.7°C 42.8°F6.0°C 89% 14.0 mph SSW22.5 kmh SSW 23.0 mph37.0 kmh 29.38 in994.9 mb 0.00 in0.0 mm 0.00 in0.0 mm 0.03 in0.8 mm
02:29 AM 45.9°F7.7°C 42.8°F6.0°C 89% 12.0 mph WSW19.3 kmh WSW 19.0 mph30.6 kmh 29.39 in995.3 mb 0.00 in0.0 mm 0.00 in0.0 mm 0.03 in0.8 mm
02:34 AM 46.0°F7.8°C 42.7°F5.9°C 88% 15.0 mph W24.1 kmh W 24.0 mph38.6 kmh 29.39 in995.3 mb 0.00 in0.0 mm 0.00 in0.0 mm 0.03 in0.8 mm
02:39 AM 46.2°F7.9°C 42.3°F5.7°C 86% 17.0 mph W27.4 kmh W 31.0 mph49.9 kmh 29.40 in995.6 mb 0.00 in0.0 mm 0.00 in0.0 mm 0.04 in1.0 mm
02:44 AM 46.0°F7.8°C 42.1°F5.6°C 86% 14.0 mph SSW22.5 kmh SSW 25.0 mph40.2 kmh 29.40 in995.6 mb 0.00 in0.0 mm 0.00 in0.0 mm 0.04 in1.0 mm
02:49 AM 46.2°F7.9°C 42.3°F5.7°C 86% 15.0 mph SW24.1 kmh SW 23.0 mph37.0 kmh 29.40 in995.6 mb 0.00 in0.0 mm 0.00 in0.0 mm 0.04 in1.0 mm
02:54 AM 46.4°F8.0°C 42.1°F5.6°C 85% 18.0 mph W29.0 kmh W 24.0 mph38.6 kmh 29.41 in995.9 mb 0.00 in0.0 mm 0.00 in0.0 mm 0.04 in1.0 mm
02:59 AM 46.4°F8.0°C 41.8°F5.4°C 84% 25.0 mph WSW40.2 kmh WSW 36.0 mph57.9 kmh 29.41 in995.9 mb 0.00 in0.0 mm 0.00 in0.0 mm 0.04 in1.0 mm
03:04 AM 46.6°F8.1°C 41.7°F5.4°C 83% 15.0 mph W24.1 kmh W 23.0 mph37.0 kmh 29.41 in995.9 mb 0.00 in0.0 mm 0.00 in0.0 mm 0.04 in1.0 mm
03:09 AM 46.6°F8.1°C 41.7°F5.4°C 83% 14.0 mph WSW22.5 kmh WSW 25.0 mph40.2 kmh 29.42 in996.3 mb 0.00 in0.0 mm 0.00 in0.0 mm 0.04 in1.0 mm
03:14 AM 46.4°F8.0°C 41.5°F5.3°C 83% 15.0 mph WSW24.1 kmh WSW 26.0 mph41.8 kmh 29.42 in996.3 mb 0.00 in0.0 mm 0.00 in0.0 mm 0.04 in1.0 mm
03:19 AM 46.2°F7.9°C 40.7°F4.8°C 81% 16.0 mph WSW25.7 kmh WSW 27.0 mph43.5 kmh 29.43 in996.6 mb 0.00 in0.0 mm 0.00 in0.0 mm 0.04 in1.0 mm
03:24 AM 46.2°F7.9°C 40.4°F4.7°C 80% 19.0 mph W30.6 kmh W 37.0 mph59.5 kmh 29.44 in997.0 mb 0.00 in0.0 mm 0.00 in0.0 mm 0.04 in1.0 mm
03:29 AM 46.2°F7.9°C 41.0°F5.0°C 82% 16.0 mph WSW25.7 kmh WSW 24.0 mph38.6 kmh 29.44 in997.0 mb 0.00 in0.0 mm 0.00 in0.0 mm 0.04 in1.0 mm
03:34 AM 46.2°F7.9°C 41.4°F5.2°C 83% 14.0 mph SW22.5 kmh SW 28.0 mph45.1 kmh 29.44 in997.0 mb 0.00 in0.0 mm 0.00 in0.0 mm 0.04 in1.0 mm
03:39 AM 46.0°F7.8°C 41.2°F5.1°C 83% 16.0 mph WSW25.7 kmh WSW 30.0 mph48.3 kmh 29.45 in997.3 mb 0.00 in0.0 mm 0.00 in0.0 mm 0.04 in1.0 mm
03:44 AM 46.2°F7.9°C 41.0°F5.0°C 82% 10.0 mph SSW16.1 kmh SSW 16.0 mph25.7 kmh 29.45 in997.3 mb 0.00 in0.0 mm 0.00 in0.0 mm 0.04 in1.0 mm
03:49 AM 46.2°F7.9°C 41.0°F5.0°C 82% 13.0 mph WSW20.9 kmh WSW 23.0 mph37.0 kmh 29.45 in997.3 mb 0.00 in0.0 mm 0.00 in0.0 mm 0.04 in1.0 mm
03:54 AM 46.2°F7.9°C 41.0°F5.0°C 82% 14.0 mph WSW22.5 kmh WSW 24.0 mph38.6 kmh 29.46 in997.6 mb 0.00 in0.0 mm 0.00 in0.0 mm 0.04 in1.0 mm
03:59 AM 46.2°F7.9°C 41.0°F5.0°C 82% 11.0 mph WSW17.7 kmh WSW 17.0 mph27.4 kmh 29.46 in997.6 mb 0.00 in0.0 mm 0.00 in0.0 mm 0.04 in1.0 mm
04:04 AM 46.2°F7.9°C 41.0°F5.0°C 82% 7.0 mph SW11.3 kmh SW 24.0 mph38.6 kmh 29.47 in998.0 mb 0.00 in0.0 mm 0.00 in0.0 mm 0.04 in1.0 mm
04:09 AM 46.2°F7.9°C 41.0°F5.0°C 82% 10.0 mph W16.1 kmh W 23.0 mph37.0 kmh 29.47 in998.0 mb 0.00 in0.0 mm 0.00 in0.0 mm 0.04 in1.0 mm
04:14 AM 46.2°F7.9°C 41.0°F5.0°C 82% 12.0 mph WSW19.3 kmh WSW 18.0 mph29.0 kmh 29.47 in998.0 mb 0.00 in0.0 mm 0.00 in0.0 mm 0.04 in1.0 mm
04:19 AM 46.2°F7.9°C 41.0°F5.0°C 82% 11.0 mph SSW17.7 kmh SSW 18.0 mph29.0 kmh 29.47 in998.0 mb 0.00 in0.0 mm 0.00 in0.0 mm 0.04 in1.0 mm
04:24 AM 46.2°F7.9°C 41.0°F5.0°C 82% 13.0 mph WSW20.9 kmh WSW 19.0 mph30.6 kmh 29.48 in998.3 mb 0.00 in0.0 mm 0.00 in0.0 mm 0.04 in1.0 mm
04:29 AM 46.2°F7.9°C 41.0°F5.0°C 82% 11.0 mph SW17.7 kmh SW 18.0 mph29.0 kmh 29.48 in998.3 mb 0.00 in0.0 mm 0.00 in0.0 mm 0.04 in1.0 mm
04:34 AM 46.2°F7.9°C 41.0°F5.0°C 82% 15.0 mph W24.1 kmh W 24.0 mph38.6 kmh 29.48 in998.3 mb 0.00 in0.0 mm 0.00 in0.0 mm 0.04 in1.0 mm
04:39 AM 46.0°F7.8°C 40.9°F4.9°C 82% 10.0 mph WSW16.1 kmh WSW 17.0 mph27.4 kmh 29.49 in998.6 mb 0.00 in0.0 mm 0.00 in0.0 mm 0.04 in1.0 mm
04:44 AM 46.2°F7.9°C 41.0°F5.0°C 82% 11.0 mph SSW17.7 kmh SSW 22.0 mph35.4 kmh 29.49 in998.6 mb 0.00 in0.0 mm 0.00 in0.0 mm 0.04 in1.0 mm
04:49 AM 46.0°F7.8°C 40.9°F4.9°C 82% 16.0 mph WSW25.7 kmh WSW 23.0 mph37.0 kmh 29.49 in998.6 mb 0.00 in0.0 mm 0.00 in0.0 mm 0.04 in1.0 mm
04:54 AM 46.0°F7.8°C 40.9°F4.9°C 82% 11.0 mph W17.7 kmh W 16.0 mph25.7 kmh 29.49 in998.6 mb 0.00 in0.0 mm 0.00 in0.0 mm 0.04 in1.0 mm
04:59 AM 46.0°F7.8°C 40.9°F4.9°C 82% 13.0 mph SW20.9 kmh SW 21.0 mph33.8 kmh 29.49 in998.6 mb 0.00 in0.0 mm 0.00 in0.0 mm 0.04 in1.0 mm
05:04 AM 46.0°F7.8°C 40.9°F4.9°C 82% 8.0 mph SW12.9 kmh SW 15.0 mph24.1 kmh 29.50 in999.0 mb 0.00 in0.0 mm 0.00 in0.0 mm 0.04 in1.0 mm
05:09 AM 45.9°F7.7°C 40.4°F4.7°C 81% 12.0 mph WSW19.3 kmh WSW 18.0 mph29.0 kmh 29.50 in999.0 mb 0.00 in0.0 mm 0.00 in0.0 mm 0.04 in1.0 mm
05:14 AM 45.9°F7.7°C 40.4°F4.7°C 81% 13.0 mph W20.9 kmh W 19.0 mph30.6 kmh 29.50 in999.0 mb 0.00 in0.0 mm 0.00 in0.0 mm 0.04 in1.0 mm
05:19 AM 45.7°F7.6°C 40.2°F4.6°C 81% 17.0 mph W27.4 kmh W 25.0 mph40.2 kmh 29.50 in999.0 mb 0.00 in0.0 mm 0.00 in0.0 mm 0.04 in1.0 mm
05:24 AM 45.7°F7.6°C 40.2°F4.6°C 81% 12.0 mph W19.3 kmh W 18.0 mph29.0 kmh 29.50 in999.0 mb 0.00 in0.0 mm 0.00 in0.0 mm 0.04 in1.0 mm
05:29 AM 45.5°F7.5°C 40.0°F4.4°C 81% 10.0 mph SW16.1 kmh SW 23.0 mph37.0 kmh 29.50 in999.0 mb 0.00 in0.0 mm 0.00 in0.0 mm 0.04 in1.0 mm
05:34 AM 45.5°F7.5°C 40.0°F4.4°C 81% 10.0 mph W16.1 kmh W 20.0 mph32.2 kmh 29.51 in999.3 mb 0.00 in0.0 mm 0.00 in0.0 mm 0.04 in1.0 mm
05:39 AM 45.5°F7.5°C 40.0°F4.4°C 81% 13.0 mph WSW20.9 kmh WSW 17.0 mph27.4 kmh 29.51 in999.3 mb 0.00 in0.0 mm 0.00 in0.0 mm 0.04 in1.0 mm
05:44 AM 45.3°F7.4°C 39.8°F4.3°C 81% 11.0 mph WSW17.7 kmh WSW 14.0 mph22.5 kmh 29.51 in999.3 mb 0.00 in0.0 mm 0.00 in0.0 mm 0.04 in1.0 mm
05:49 AM 45.3°F7.4°C 39.8°F4.3°C 81% 11.0 mph W17.7 kmh W 18.0 mph29.0 kmh 29.51 in999.3 mb 0.00 in0.0 mm 0.00 in0.0 mm 0.04 in1.0 mm
05:54 AM 45.3°F7.4°C 39.8°F4.3°C 81% 11.0 mph WSW17.7 kmh WSW 16.0 mph25.7 kmh 29.51 in999.3 mb 0.00 in0.0 mm 0.00 in0.0 mm 0.04 in1.0 mm
05:59 AM 45.3°F7.4°C 39.8°F4.3°C 81% 12.0 mph WSW19.3 kmh WSW 18.0 mph29.0 kmh 29.51 in999.3 mb 0.00 in0.0 mm 0.00 in0.0 mm 0.04 in1.0 mm
06:04 AM 45.1°F7.3°C 39.3°F4.1°C 80% 12.0 mph W19.3 kmh W 18.0 mph29.0 kmh 29.51 in999.3 mb 0.00 in0.0 mm 0.00 in0.0 mm 0.04 in1.0 mm
06:09 AM 45.1°F7.3°C 39.3°F4.1°C 80% 9.0 mph WSW14.5 kmh WSW 14.0 mph22.5 kmh 29.52 in999.7 mb 0.00 in0.0 mm 0.00 in0.0 mm 0.04 in1.0 mm
06:14 AM 45.1°F7.3°C 39.7°F4.3°C 81% 8.0 mph WSW12.9 kmh WSW 14.0 mph22.5 kmh 29.52 in999.7 mb 0.00 in0.0 mm 0.00 in0.0 mm 0.04 in1.0 mm
06:19 AM 45.1°F7.3°C 39.7°F4.3°C 81% 7.0 mph SW11.3 kmh SW 16.0 mph25.7 kmh 29.52 in999.7 mb 0.00 in0.0 mm 0.00 in0.0 mm 0.04 in1.0 mm
06:24 AM 45.1°F7.3°C 39.7°F4.3°C 81% 9.0 mph SW14.5 kmh SW 13.0 mph20.9 kmh 29.52 in999.7 mb 0.00 in0.0 mm 0.00 in0.0 mm 0.04 in1.0 mm
06:29 AM 45.1°F7.3°C 39.7°F4.3°C 81% 8.0 mph SSW12.9 kmh SSW 13.0 mph20.9 kmh 29.52 in999.7 mb 0.00 in0.0 mm 0.00 in0.0 mm 0.04 in1.0 mm
06:34 AM 45.1°F7.3°C 39.7°F4.3°C 81% 8.0 mph SW12.9 kmh SW 13.0 mph20.9 kmh 29.52 in999.7 mb 0.00 in0.0 mm 0.00 in0.0 mm 0.04 in1.0 mm
06:39 AM 45.0°F7.2°C 39.8°F4.3°C 82% 9.0 mph SSW14.5 kmh SSW 13.0 mph20.9 kmh 29.52 in999.7 mb 0.00 in0.0 mm 0.00 in0.0 mm 0.04 in1.0 mm
06:44 AM 45.0°F7.2°C 39.8°F4.3°C 82% 9.0 mph WSW14.5 kmh WSW 16.0 mph25.7 kmh 29.52 in999.7 mb 0.00 in0.0 mm 0.00 in0.0 mm 0.04 in1.0 mm
06:49 AM 44.8°F7.1°C 39.9°F4.4°C 83% 10.0 mph SW16.1 kmh SW 15.0 mph24.1 kmh 29.52 in999.7 mb 0.00 in0.0 mm 0.00 in0.0 mm 0.04 in1.0 mm
06:54 AM 44.8°F7.1°C 39.9°F4.4°C 83% 9.0 mph SW14.5 kmh SW 13.0 mph20.9 kmh 29.52 in999.7 mb 0.00 in0.0 mm 0.00 in0.0 mm 0.04 in1.0 mm
06:59 AM 44.6°F7.0°C 39.8°F4.3°C 83% 9.0 mph SSW14.5 kmh SSW 14.0 mph22.5 kmh 29.52 in999.7 mb 0.00 in0.0 mm 0.00 in0.0 mm 0.04 in1.0 mm
07:04 AM 44.8°F7.1°C 39.9°F4.4°C 83% 8.0 mph SW12.9 kmh SW 17.0 mph27.4 kmh 29.52 in999.7 mb 0.00 in0.0 mm 0.00 in0.0 mm 0.04 in1.0 mm
07:09 AM 44.8°F7.1°C 39.9°F4.4°C 83% 9.0 mph SW14.5 kmh SW 14.0 mph22.5 kmh 29.53 in1000.0 mb 0.00 in0.0 mm 0.00 in0.0 mm 0.04 in1.0 mm
07:14 AM 44.8°F7.1°C 39.9°F4.4°C 83% 8.0 mph SSW12.9 kmh SSW 12.0 mph19.3 kmh 29.53 in1000.0 mb 0.00 in0.0 mm 0.00 in0.0 mm 0.04 in1.0 mm
07:24 AM 44.8°F7.1°C 40.3°F4.6°C 84% 8.0 mph SW12.9 kmh SW 13.0 mph20.9 kmh 29.53 in1000.0 mb 0.00 in0.0 mm 0.00 in0.0 mm 0.04 in1.0 mm
07:29 AM 45.0°F7.2°C 40.4°F4.7°C 84% 14.0 mph SSW22.5 kmh SSW 21.0 mph33.8 kmh 29.53 in1000.0 mb 0.00 in0.0 mm 0.00 in0.0 mm 0.04 in1.0 mm
07:34 AM 44.8°F7.1°C 40.3°F4.6°C 84% 11.0 mph SSW17.7 kmh SSW 16.0 mph25.7 kmh 29.53 in1000.0 mb 0.00 in0.0 mm 0.00 in0.0 mm 0.04 in1.0 mm
07:39 AM 44.8°F7.1°C 40.3°F4.6°C 84% 10.0 mph SW16.1 kmh SW 18.0 mph29.0 kmh 29.53 in1000.0 mb 0.00 in0.0 mm 0.00 in0.0 mm 0.04 in1.0 mm
07:44 AM 44.8°F7.1°C 39.9°F4.4°C 83% 11.0 mph SSW17.7 kmh SSW 18.0 mph29.0 kmh 29.53 in1000.0 mb 0.00 in0.0 mm 0.00 in0.0 mm 0.04 in1.0 mm
07:49 AM 44.8°F7.1°C 39.9°F4.4°C 83% 9.0 mph SW14.5 kmh SW 13.0 mph20.9 kmh 29.52 in999.7 mb 0.00 in0.0 mm 0.00 in0.0 mm 0.04 in1.0 mm
07:54 AM 44.8°F7.1°C 39.9°F4.4°C 83% 9.0 mph SSW14.5 kmh SSW 14.0 mph22.5 kmh 29.52 in999.7 mb 0.00 in0.0 mm 0.00 in0.0 mm 0.04 in1.0 mm
07:59 AM 44.8°F7.1°C 39.9°F4.4°C 83% 8.0 mph SW12.9 kmh SW 13.0 mph20.9 kmh 29.52 in999.7 mb 0.00 in0.0 mm 0.00 in0.0 mm 0.04 in1.0 mm
08:04 AM 44.6°F7.0°C 39.8°F4.3°C 83% 8.0 mph SW12.9 kmh SW 13.0 mph20.9 kmh 29.52 in999.7 mb 0.00 in0.0 mm 0.00 in0.0 mm 0.04 in1.0 mm
08:09 AM 44.8°F7.1°C 39.9°F4.4°C 83% 9.0 mph SE14.5 kmh SE 13.0 mph20.9 kmh 29.52 in999.7 mb 0.00 in0.0 mm 0.00 in0.0 mm 0.04 in1.0 mm
08:14 AM 44.8°F7.1°C 39.9°F4.4°C 83% 9.0 mph S14.5 kmh S 15.0 mph24.1 kmh 29.52 in999.7 mb 0.00 in0.0 mm 0.00 in0.0 mm 0.04 in1.0 mm
08:19 AM 44.8°F7.1°C 40.3°F4.6°C 84% 11.0 mph SSW17.7 kmh SSW 16.0 mph25.7 kmh 29.52 in999.7 mb 0.00 in0.0 mm 0.00 in0.0 mm 0.04 in1.0 mm
08:24 AM 45.0°F7.2°C 40.1°F4.5°C 83% 8.0 mph SSW12.9 kmh SSW 12.0 mph19.3 kmh 29.52 in999.7 mb 0.00 in0.0 mm 0.00 in0.0 mm 0.04 in1.0 mm
08:29 AM 45.0°F7.2°C 40.4°F4.7°C 84% 10.0 mph SW16.1 kmh SW 14.0 mph22.5 kmh 29.52 in999.7 mb 0.00 in0.0 mm 0.00 in0.0 mm 0.04 in1.0 mm
08:34 AM 45.0°F7.2°C 40.4°F4.7°C 84% 8.0 mph S12.9 kmh S 14.0 mph22.5 kmh 29.52 in999.7 mb 0.00 in0.0 mm 0.00 in0.0 mm 0.04 in1.0 mm
08:39 AM 45.0°F7.2°C 40.4°F4.7°C 84% 13.0 mph S20.9 kmh S 19.0 mph30.6 kmh 29.53 in1000.0 mb 0.00 in0.0 mm 0.00 in0.0 mm 0.04 in1.0 mm
08:44 AM 44.8°F7.1°C 40.6°F4.8°C 85% 11.0 mph SSW17.7 kmh SSW 16.0 mph25.7 kmh 29.53 in1000.0 mb 0.00 in0.0 mm 0.00 in0.0 mm 0.04 in1.0 mm
08:49 AM 44.4°F6.9°C 40.2°F4.6°C 85% 9.0 mph SSW14.5 kmh SSW 13.0 mph20.9 kmh 29.53 in1000.0 mb 0.00 in0.0 mm 0.00 in0.0 mm 0.04 in1.0 mm
08:54 AM 44.1°F6.7°C 39.8°F4.3°C 85% 10.0 mph S16.1 kmh S 13.0 mph20.9 kmh 29.53 in1000.0 mb 0.00 in0.0 mm 0.00 in0.0 mm 0.04 in1.0 mm
08:59 AM 43.9°F6.6°C 40.0°F4.4°C 86% 9.0 mph S14.5 kmh S 14.0 mph22.5 kmh 29.53 in1000.0 mb 0.00 in0.0 mm 0.00 in0.0 mm 0.04 in1.0 mm
09:04 AM 43.9°F6.6°C 40.3°F4.6°C 87% 9.0 mph S14.5 kmh S 17.0 mph27.4 kmh 29.53 in1000.0 mb 0.00 in0.0 mm 0.00 in0.0 mm 0.04 in1.0 mm
09:09 AM 44.1°F6.7°C 40.4°F4.7°C 87% 10.0 mph S16.1 kmh S 15.0 mph24.1 kmh 29.53 in1000.0 mb 0.00 in0.0 mm 0.00 in0.0 mm 0.04 in1.0 mm
09:14 AM 44.1°F6.7°C 40.4°F4.7°C 87% 14.0 mph S22.5 kmh S 20.0 mph32.2 kmh 29.53 in1000.0 mb 0.00 in0.0 mm 0.00 in0.0 mm 0.04 in1.0 mm
09:19 AM 44.2°F6.8°C 40.6°F4.8°C 87% 11.0 mph SSW17.7 kmh SSW 21.0 mph33.8 kmh 29.53 in1000.0 mb 0.00 in0.0 mm 0.00 in0.0 mm 0.04 in1.0 mm
09:24 AM 44.4°F6.9°C 40.8°F4.9°C 87% 12.0 mph SSW19.3 kmh SSW 18.0 mph29.0 kmh 29.52 in999.7 mb 0.00 in0.0 mm 0.00 in0.0 mm 0.04 in1.0 mm
09:29 AM 44.2°F6.8°C 40.6°F4.8°C 87% 8.0 mph S12.9 kmh S 12.0 mph19.3 kmh 29.53 in1000.0 mb 0.00 in0.0 mm 0.00 in0.0 mm 0.04 in1.0 mm
09:34 AM 44.1°F6.7°C 40.4°F4.7°C 87% 9.0 mph SW14.5 kmh SW 14.0 mph22.5 kmh 29.53 in1000.0 mb 0.00 in0.0 mm 0.00 in0.0 mm 0.04 in1.0 mm
09:39 AM 44.1°F6.7°C 40.7°F4.8°C 88% 14.0 mph S22.5 kmh S 22.0 mph35.4 kmh 29.53 in1000.0 mb 0.00 in0.0 mm 0.00 in0.0 mm 0.04 in1.0 mm
09:44 AM 44.1°F6.7°C 40.7°F4.8°C 88% 10.0 mph SSW16.1 kmh SSW 14.0 mph22.5 kmh 29.53 in1000.0 mb 0.00 in0.0 mm 0.00 in0.0 mm 0.04 in1.0 mm
09:49 AM 43.9°F6.6°C 40.6°F4.8°C 88% 7.0 mph S11.3 kmh S 11.0 mph17.7 kmh 29.53 in1000.0 mb 0.00 in0.0 mm 0.00 in0.0 mm 0.04 in1.0 mm
09:54 AM 43.9°F6.6°C 40.9°F4.9°C 89% 11.0 mph S17.7 kmh S 16.0 mph25.7 kmh 29.53 in1000.0 mb 0.00 in0.0 mm 0.00 in0.0 mm 0.04 in1.0 mm
09:59 AM 43.9°F6.6°C 40.6°F4.8°C 88% 10.0 mph SSW16.1 kmh SSW 15.0 mph24.1 kmh 29.53 in1000.0 mb 0.00 in0.0 mm 0.00 in0.0 mm 0.04 in1.0 mm
10:04 AM 44.1°F6.7°C 40.7°F4.8°C 88% 8.0 mph S12.9 kmh S 11.0 mph17.7 kmh 29.53 in1000.0 mb 0.00 in0.0 mm 0.00 in0.0 mm 0.04 in1.0 mm
10:09 AM 44.1°F6.7°C 40.7°F4.8°C 88% 12.0 mph S19.3 kmh S 20.0 mph32.2 kmh 29.53 in1000.0 mb 0.00 in0.0 mm 0.00 in0.0 mm 0.04 in1.0 mm
10:14 AM 44.1°F6.7°C 40.7°F4.8°C 88% 10.0 mph S16.1 kmh S 15.0 mph24.1 kmh 29.53 in1000.0 mb 0.00 in0.0 mm 0.00 in0.0 mm 0.04 in1.0 mm
10:19 AM 43.9°F6.6°C 40.6°F4.8°C 88% 10.0 mph SSE16.1 kmh SSE 17.0 mph27.4 kmh 29.52 in999.7 mb 0.00 in0.0 mm 0.00 in0.0 mm 0.04 in1.0 mm
10:24 AM 43.9°F6.6°C 40.6°F4.8°C 88% 14.0 mph SSW22.5 kmh SSW 21.0 mph33.8 kmh 29.52 in999.7 mb 0.00 in0.0 mm 0.00 in0.0 mm 0.04 in1.0 mm
10:29 AM 43.9°F6.6°C 40.6°F4.8°C 88% 7.0 mph S11.3 kmh S 10.0 mph16.1 kmh 29.52 in999.7 mb 0.00 in0.0 mm 0.00 in0.0 mm 0.04 in1.0 mm
10:34 AM 44.1°F6.7°C 40.7°F4.8°C 88% 5.0 mph S8.0 kmh S 8.0 mph12.9 kmh 29.52 in999.7 mb 0.00 in0.0 mm 0.00 in0.0 mm 0.04 in1.0 mm
10:39 AM 44.2°F6.8°C 40.9°F4.9°C 88% 9.0 mph SSW14.5 kmh SSW 14.0 mph22.5 kmh 29.52 in999.7 mb 0.00 in0.0 mm 0.00 in0.0 mm 0.04 in1.0 mm
10:44 AM 44.2°F6.8°C 40.6°F4.8°C 87% 11.0 mph SSE17.7 kmh SSE 19.0 mph30.6 kmh 29.52 in999.7 mb 0.00 in0.0 mm 0.00 in0.0 mm 0.04 in1.0 mm
10:49 AM 44.2°F6.8°C 40.9°F4.9°C 88% 12.0 mph S19.3 kmh S 16.0 mph25.7 kmh 29.52 in999.7 mb 0.00 in0.0 mm 0.00 in0.0 mm 0.04 in1.0 mm
10:54 AM 44.2°F6.8°C 40.9°F4.9°C 88% 11.0 mph SW17.7 kmh SW 20.0 mph32.2 kmh 29.52 in999.7 mb 0.00 in0.0 mm 0.00 in0.0 mm 0.04 in1.0 mm
10:59 AM 44.2°F6.8°C 40.9°F4.9°C 88% 10.0 mph S16.1 kmh S 15.0 mph24.1 kmh 29.52 in999.7 mb 0.00 in0.0 mm 0.00 in0.0 mm 0.04 in1.0 mm
11:04 AM 44.1°F6.7°C 40.4°F4.7°C 87% 11.0 mph S17.7 kmh S 18.0 mph29.0 kmh 29.52 in999.7 mb 0.00 in0.0 mm 0.00 in0.0 mm 0.04 in1.0 mm
11:09 AM 44.2°F6.8°C 40.9°F4.9°C 88% 9.0 mph SSW14.5 kmh SSW 12.0 mph19.3 kmh 29.52 in999.7 mb 0.00 in0.0 mm 0.00 in0.0 mm 0.04 in1.0 mm
11:14 AM 44.8°F7.1°C 41.2°F5.1°C 87% 10.0 mph S16.1 kmh S 15.0 mph24.1 kmh 29.52 in999.7 mb 0.00 in0.0 mm 0.00 in0.0 mm 0.04 in1.0 mm
11:19 AM 44.8°F7.1°C 41.2°F5.1°C 87% 12.0 mph SSW19.3 kmh SSW 19.0 mph30.6 kmh 29.51 in999.3 mb 0.00 in0.0 mm 0.00 in0.0 mm 0.04 in1.0 mm
11:24 AM 44.6°F7.0°C 41.0°F5.0°C 87% 9.0 mph S14.5 kmh S 14.0 mph22.5 kmh 29.51 in999.3 mb 0.00 in0.0 mm 0.00 in0.0 mm 0.04 in1.0 mm
11:29 AM 44.4°F6.9°C 40.5°F4.7°C 86% 10.0 mph S16.1 kmh S 19.0 mph30.6 kmh 29.51 in999.3 mb 0.00 in0.0 mm 0.00 in0.0 mm 0.04 in1.0 mm
11:34 AM 44.4°F6.9°C 40.5°F4.7°C 86% 13.0 mph SW20.9 kmh SW 19.0 mph30.6 kmh 29.51 in999.3 mb 0.00 in0.0 mm 0.00 in0.0 mm 0.04 in1.0 mm
11:39 AM 44.4°F6.9°C 40.5°F4.7°C 86% 11.0 mph S17.7 kmh S 16.0 mph25.7 kmh 29.51 in999.3 mb 0.00 in0.0 mm 0.00 in0.0 mm 0.04 in1.0 mm
11:44 AM 44.4°F6.9°C 40.5°F4.7°C 86% 10.0 mph SSW16.1 kmh SSW 13.0 mph20.9 kmh 29.50 in999.0 mb 0.00 in0.0 mm 0.00 in0.0 mm 0.04 in1.0 mm
11:49 AM 44.2°F6.8°C 40.3°F4.6°C 86% 10.0 mph S16.1 kmh S 15.0 mph24.1 kmh 29.50 in999.0 mb 0.00 in0.0 mm 0.00 in0.0 mm 0.04 in1.0 mm
11:54 AM 44.2°F6.8°C 40.3°F4.6°C 86% 10.0 mph S16.1 kmh S 14.0 mph22.5 kmh 29.50 in999.0 mb 0.00 in0.0 mm 0.00 in0.0 mm 0.04 in1.0 mm
11:59 AM 44.2°F6.8°C 40.3°F4.6°C 86% 12.0 mph S19.3 kmh S 17.0 mph27.4 kmh 29.50 in999.0 mb 0.00 in0.0 mm 0.00 in0.0 mm 0.04 in1.0 mm
12:04 PM 44.2°F6.8°C 40.3°F4.6°C 86% 10.0 mph S16.1 kmh S 14.0 mph22.5 kmh 29.49 in998.6 mb 0.00 in0.0 mm 0.00 in0.0 mm 0.04 in1.0 mm
12:09 PM 44.2°F6.8°C 40.3°F4.6°C 86% 8.0 mph SSW12.9 kmh SSW 12.0 mph19.3 kmh 29.50 in999.0 mb 0.00 in0.0 mm 0.00 in0.0 mm 0.04 in1.0 mm
12:14 PM 44.2°F6.8°C 40.3°F4.6°C 86% 9.0 mph S14.5 kmh S 16.0 mph25.7 kmh 29.49 in998.6 mb 0.00 in0.0 mm 0.00 in0.0 mm 0.04 in1.0 mm
12:19 PM 44.2°F6.8°C 40.3°F4.6°C 86% 9.0 mph SE14.5 kmh SE 14.0 mph22.5 kmh 29.49 in998.6 mb 0.00 in0.0 mm 0.00 in0.0 mm 0.04 in1.0 mm
12:24 PM 44.2°F6.8°C 40.3°F4.6°C 86% 6.0 mph SSE9.7 kmh SSE 10.0 mph16.1 kmh 29.49 in998.6 mb 0.00 in0.0 mm 0.00 in0.0 mm 0.04 in1.0 mm
12:29 PM 44.2°F6.8°C 40.6°F4.8°C 87% 10.0 mph S16.1 kmh S 12.0 mph19.3 kmh 29.49 in998.6 mb 0.00 in0.0 mm 0.00 in0.0 mm 0.04 in1.0 mm
12:34 PM 44.2°F6.8°C 40.6°F4.8°C 87% 6.0 mph SE9.7 kmh SE 10.0 mph16.1 kmh 29.49 in998.6 mb 0.00 in0.0 mm 0.00 in0.0 mm 0.04 in1.0 mm
12:39 PM 44.1°F6.7°C 40.4°F4.7°C 87% 9.0 mph SSE14.5 kmh SSE 12.0 mph19.3 kmh 29.48 in998.3 mb 0.00 in0.0 mm 0.00 in0.0 mm 0.04 in1.0 mm
12:44 PM 44.1°F6.7°C 40.4°F4.7°C 87% 9.0 mph S14.5 kmh S 15.0 mph24.1 kmh 29.48 in998.3 mb 0.00 in0.0 mm 0.00 in0.0 mm 0.04 in1.0 mm
12:49 PM 44.1°F6.7°C 40.4°F4.7°C 87% 6.0 mph SSE9.7 kmh SSE 10.0 mph16.1 kmh 29.48 in998.3 mb 0.00 in0.0 mm 0.00 in0.0 mm 0.04 in1.0 mm
12:54 PM 44.2°F6.8°C 40.6°F4.8°C 87% 9.0 mph S14.5 kmh S 14.0 mph22.5 kmh 29.47 in998.0 mb 0.00 in0.0 mm 0.00 in0.0 mm 0.04 in1.0 mm
12:59 PM 44.2°F6.8°C 40.3°F4.6°C 86% 10.0 mph SW16.1 kmh SW 14.0 mph22.5 kmh 29.47 in998.0 mb 0.00 in0.0 mm 0.00 in0.0 mm 0.04 in1.0 mm
01:04 PM 44.2°F6.8°C 40.3°F4.6°C 86% 10.0 mph S16.1 kmh S 13.0 mph20.9 kmh 29.47 in998.0 mb 0.00 in0.0 mm 0.00 in0.0 mm 0.04 in1.0 mm
01:09 PM 44.4°F6.9°C 40.5°F4.7°C 86% 10.0 mph S16.1 kmh S 17.0 mph27.4 kmh 29.47 in998.0 mb 0.00 in0.0 mm 0.00 in0.0 mm 0.04 in1.0 mm
01:14 PM 44.4°F6.9°C 40.5°F4.7°C 86% 6.0 mph SSE9.7 kmh SSE 11.0 mph17.7 kmh 29.47 in998.0 mb 0.00 in0.0 mm 0.00 in0.0 mm 0.04 in1.0 mm
01:19 PM 44.6°F7.0°C 40.7°F4.8°C 86% 7.0 mph S11.3 kmh S 10.0 mph16.1 kmh 29.46 in997.6 mb 0.00 in0.0 mm 0.00 in0.0 mm 0.04 in1.0 mm
01:24 PM 44.6°F7.0°C 40.7°F4.8°C 86% 7.0 mph S11.3 kmh S 11.0 mph17.7 kmh 29.46 in997.6 mb 0.00 in0.0 mm 0.00 in0.0 mm 0.04 in1.0 mm
01:29 PM 44.8°F7.1°C 40.9°F4.9°C 86% 8.0 mph S12.9 kmh S 10.0 mph16.1 kmh 29.46 in997.6 mb 0.00 in0.0 mm 0.00 in0.0 mm 0.04 in1.0 mm
01:34 PM 45.0°F7.2°C 41.0°F5.0°C 86% 7.0 mph S11.3 kmh S 9.0 mph14.5 kmh 29.46 in997.6 mb 0.00 in0.0 mm 0.00 in0.0 mm 0.04 in1.0 mm
01:39 PM 44.8°F7.1°C 40.9°F4.9°C 86% 9.0 mph SSE14.5 kmh SSE 12.0 mph19.3 kmh 29.45 in997.3 mb 0.00 in0.0 mm 0.00 in0.0 mm 0.04 in1.0 mm
01:44 PM 44.8°F7.1°C 40.9°F4.9°C 86% 5.0 mph S8.0 kmh S 10.0 mph16.1 kmh 29.45 in997.3 mb 0.00 in0.0 mm 0.00 in0.0 mm 0.04 in1.0 mm
01:49 PM 44.8°F7.1°C 40.9°F4.9°C 86% 8.0 mph S12.9 kmh S 10.0 mph16.1 kmh 29.45 in997.3 mb 0.00 in0.0 mm 0.00 in0.0 mm 0.04 in1.0 mm
01:54 PM 44.8°F7.1°C 40.9°F4.9°C 86% 9.0 mph S14.5 kmh S 13.0 mph20.9 kmh 29.44 in997.0 mb 0.00 in0.0 mm 0.00 in0.0 mm 0.04 in1.0 mm
01:59 PM 44.8°F7.1°C 40.9°F4.9°C 86% 5.0 mph SSE8.0 kmh SSE 8.0 mph12.9 kmh 29.44 in997.0 mb 0.00 in0.0 mm 0.00 in0.0 mm 0.04 in1.0 mm
02:04 PM 44.8°F7.1°C 40.9°F4.9°C 86% 9.0 mph S14.5 kmh S 11.0 mph17.7 kmh 29.44 in997.0 mb 0.00 in0.0 mm 0.00 in0.0 mm 0.04 in1.0 mm
02:09 PM 44.8°F7.1°C 40.9°F4.9°C 86% 7.0 mph SSW11.3 kmh SSW 9.0 mph14.5 kmh 29.44 in997.0 mb 0.00 in0.0 mm 0.00 in0.0 mm 0.04 in1.0 mm
02:14 PM 44.8°F7.1°C 40.9°F4.9°C 86% 9.0 mph S14.5 kmh S 15.0 mph24.1 kmh 29.44 in997.0 mb 0.00 in0.0 mm 0.00 in0.0 mm 0.04 in1.0 mm
02:19 PM 44.8°F7.1°C 40.9°F4.9°C 86% 7.0 mph SSE11.3 kmh SSE 12.0 mph19.3 kmh 29.44 in997.0 mb 0.00 in0.0 mm 0.00 in0.0 mm 0.04 in1.0 mm
02:24 PM 44.8°F7.1°C 41.2°F5.1°C 87% 6.0 mph SSW9.7 kmh SSW 10.0 mph16.1 kmh 29.43 in996.6 mb 0.00 in0.0 mm 0.00 in0.0 mm 0.04 in1.0 mm
02:29 PM 44.8°F7.1°C 41.2°F5.1°C 87% 7.0 mph S11.3 kmh S 11.0 mph17.7 kmh 29.44 in997.0 mb 0.00 in0.0 mm 0.00 in0.0 mm 0.04 in1.0 mm
02:34 PM 44.8°F7.1°C 41.2°F5.1°C 87% 5.0 mph S8.0 kmh S 7.0 mph11.3 kmh 29.43 in996.6 mb 0.00 in0.0 mm 0.00 in0.0 mm 0.04 in1.0 mm
02:39 PM 44.8°F7.1°C 41.2°F5.1°C 87% 5.0 mph S8.0 kmh S 7.0 mph11.3 kmh 29.43 in996.6 mb 0.00 in0.0 mm 0.00 in0.0 mm 0.04 in1.0 mm
02:44 PM 44.8°F7.1°C 41.2°F5.1°C 87% 9.0 mph S14.5 kmh S 14.0 mph22.5 kmh 29.42 in996.3 mb 0.00 in0.0 mm 0.00 in0.0 mm 0.04 in1.0 mm
02:49 PM 44.8°F7.1°C 41.2°F5.1°C 87% 5.0 mph SW8.0 kmh SW 8.0 mph12.9 kmh 29.42 in996.3 mb 0.00 in0.0 mm 0.00 in0.0 mm 0.04 in1.0 mm
02:54 PM 44.8°F7.1°C 41.2°F5.1°C 87% 6.0 mph SSE9.7 kmh SSE 9.0 mph14.5 kmh 29.42 in996.3 mb 0.00 in0.0 mm 0.00 in0.0 mm 0.04 in1.0 mm
02:59 PM 45.0°F7.2°C 41.3°F5.2°C 87% 4.0 mph SSE6.4 kmh SSE 6.0 mph9.7 kmh 29.41 in995.9 mb 0.00 in0.0 mm 0.00 in0.0 mm 0.04 in1.0 mm
03:04 PM 45.0°F7.2°C 41.3°F5.2°C 87% 5.0 mph S8.0 kmh S 7.0 mph11.3 kmh 29.41 in995.9 mb 0.00 in0.0 mm 0.00 in0.0 mm 0.04 in1.0 mm
03:09 PM 44.8°F7.1°C 41.2°F5.1°C 87% 5.0 mph S8.0 kmh S 7.0 mph11.3 kmh 29.41 in995.9 mb 0.00 in0.0 mm 0.00 in0.0 mm 0.04 in1.0 mm
03:14 PM 44.8°F7.1°C 41.2°F5.1°C 87% 5.0 mph SSE8.0 kmh SSE 8.0 mph12.9 kmh 29.41 in995.9 mb 0.00 in0.0 mm 0.00 in0.0 mm 0.04 in1.0 mm
03:19 PM 45.0°F7.2°C 41.3°F5.2°C 87% 3.0 mph SSE4.8 kmh SSE 5.0 mph8.0 kmh 29.41 in995.9 mb 0.00 in0.0 mm 0.00 in0.0 mm 0.04 in1.0 mm
03:24 PM 45.0°F7.2°C 41.3°F5.2°C 87% 5.0 mph S8.0 kmh S 6.0 mph9.7 kmh 29.41 in995.9 mb 0.00 in0.0 mm 0.00 in0.0 mm 0.04 in1.0 mm
03:29 PM 44.8°F7.1°C 41.2°F5.1°C 87% 4.0 mph SSE6.4 kmh SSE 6.0 mph9.7 kmh 29.41 in995.9 mb 0.00 in0.0 mm 0.00 in0.0 mm 0.04 in1.0 mm
03:34 PM 44.8°F7.1°C 41.2°F5.1°C 87% 4.0 mph SSE6.4 kmh SSE 6.0 mph9.7 kmh 29.41 in995.9 mb 0.00 in0.0 mm 0.00 in0.0 mm 0.04 in1.0 mm
03:39 PM 44.8°F7.1°C 41.4°F5.2°C 88% 4.0 mph SE6.4 kmh SE 6.0 mph9.7 kmh 29.41 in995.9 mb 0.00 in0.0 mm 0.00 in0.0 mm 0.04 in1.0 mm
03:44 PM 44.8°F7.1°C 41.4°F5.2°C 88% 3.0 mph SE4.8 kmh SE 4.0 mph6.4 kmh 29.41 in995.9 mb 0.00 in0.0 mm 0.00 in0.0 mm 0.04 in1.0 mm
03:49 PM 44.8°F7.1°C 41.4°F5.2°C 88% 4.0 mph SE6.4 kmh SE 5.0 mph8.0 kmh 29.41 in995.9 mb 0.00 in0.0 mm 0.00 in0.0 mm 0.04 in1.0 mm
03:54 PM 44.8°F7.1°C 41.4°F5.2°C 88% 5.0 mph SE8.0 kmh SE 7.0 mph11.3 kmh 29.41 in995.9 mb 0.00 in0.0 mm 0.00 in0.0 mm 0.04 in1.0 mm
03:59 PM 44.8°F7.1°C 41.4°F5.2°C 88% 3.0 mph SE4.8 kmh SE 5.0 mph8.0 kmh 29.41 in995.9 mb 0.00 in0.0 mm 0.00 in0.0 mm 0.04 in1.0 mm
04:04 PM 44.6°F7.0°C 41.6°F5.3°C 89% 6.0 mph SE9.7 kmh SE 9.0 mph14.5 kmh 29.41 in995.9 mb 0.00 in0.0 mm 0.00 in0.0 mm 0.04 in1.0 mm
04:09 PM 44.4°F6.9°C 41.4°F5.2°C 89% 5.0 mph SE8.0 kmh SE 8.0 mph12.9 kmh 29.41 in995.9 mb 0.00 in0.0 mm 0.00 in0.0 mm 0.04 in1.0 mm
04:14 PM 44.4°F6.9°C 41.7°F5.4°C 90% 6.0 mph S9.7 kmh S 8.0 mph12.9 kmh 29.41 in995.9 mb 0.00 in0.0 mm 0.00 in0.0 mm 0.04 in1.0 mm
04:19 PM 44.2°F6.8°C 41.5°F5.3°C 90% 4.0 mph SE6.4 kmh SE 6.0 mph9.7 kmh 29.41 in995.9 mb 0.00 in0.0 mm 0.00 in0.0 mm 0.04 in1.0 mm
04:24 PM 44.2°F6.8°C 41.8°F5.4°C 91% 4.0 mph SE6.4 kmh SE 7.0 mph11.3 kmh 29.41 in995.9 mb 0.00 in0.0 mm 0.00 in0.0 mm 0.04 in1.0 mm
04:29 PM 44.1°F6.7°C 41.6°F5.3°C 91% 3.0 mph SSE4.8 kmh SSE 5.0 mph8.0 kmh 29.41 in995.9 mb 0.00 in0.0 mm 0.00 in0.0 mm 0.04 in1.0 mm
04:34 PM 44.1°F6.7°C 41.9°F5.5°C 92% 3.0 mph SSE4.8 kmh SSE 5.0 mph8.0 kmh 29.41 in995.9 mb 0.00 in0.0 mm 0.00 in0.0 mm 0.04 in1.0 mm
04:39 PM 43.9°F6.6°C 41.7°F5.4°C 92% 3.0 mph SSE4.8 kmh SSE 5.0 mph8.0 kmh 29.41 in995.9 mb 0.00 in0.0 mm 0.00 in0.0 mm 0.04 in1.0 mm
04:44 PM 43.9°F6.6°C 42.0°F5.6°C 93% 2.0 mph S3.2 kmh S 4.0 mph6.4 kmh 29.41 in995.9 mb 0.00 in0.0 mm 0.00 in0.0 mm 0.05 in1.3 mm
04:49 PM 43.7°F6.5°C 41.8°F5.4°C 93% 4.0 mph SSW6.4 kmh SSW 5.0 mph8.0 kmh 29.41 in995.9 mb 0.00 in0.0 mm 0.00 in0.0 mm 0.05 in1.3 mm
04:54 PM 43.5°F6.4°C 41.6°F5.3°C 93% 3.0 mph WSW4.8 kmh WSW 4.0 mph6.4 kmh 29.41 in995.9 mb 0.00 in0.0 mm 0.00 in0.0 mm 0.05 in1.3 mm
04:59 PM 43.7°F6.5°C 41.5°F5.3°C 92% 3.0 mph SW4.8 kmh SW 5.0 mph8.0 kmh 29.41 in995.9 mb 0.00 in0.0 mm 0.00 in0.0 mm 0.05 in1.3 mm
05:04 PM 43.7°F6.5°C 41.5°F5.3°C 92% 4.0 mph SW6.4 kmh SW 6.0 mph9.7 kmh 29.41 in995.9 mb 0.00 in0.0 mm 0.00 in0.0 mm 0.05 in1.3 mm
05:09 PM 43.7°F6.5°C 41.5°F5.3°C 92% 5.0 mph SW8.0 kmh SW 8.0 mph12.9 kmh 29.42 in996.3 mb 0.00 in0.0 mm 0.00 in0.0 mm 0.05 in1.3 mm
05:14 PM 43.5°F6.4°C 41.4°F5.2°C 92% 3.0 mph SW4.8 kmh SW 4.0 mph6.4 kmh 29.42 in996.3 mb 0.00 in0.0 mm 0.00 in0.0 mm 0.05 in1.3 mm
05:19 PM 43.5°F6.4°C 41.4°F5.2°C 92% 2.0 mph W3.2 kmh W 4.0 mph6.4 kmh 29.42 in996.3 mb 0.00 in0.0 mm 0.00 in0.0 mm 0.05 in1.3 mm
05:24 PM 43.5°F6.4°C 41.4°F5.2°C 92% 2.0 mph SW3.2 kmh SW 3.0 mph4.8 kmh 29.42 in996.3 mb 0.00 in0.0 mm 0.00 in0.0 mm 0.05 in1.3 mm
05:29 PM 43.5°F6.4°C 41.4°F5.2°C 92% 2.0 mph W3.2 kmh W 3.0 mph4.8 kmh 29.42 in996.3 mb 0.00 in0.0 mm 0.00 in0.0 mm 0.05 in1.3 mm
05:34 PM 43.5°F6.4°C 41.6°F5.3°C 93% 5.0 mph WSW8.0 kmh WSW 8.0 mph12.9 kmh 29.42 in996.3 mb 0.00 in0.0 mm 0.00 in0.0 mm 0.06 in1.5 mm
05:39 PM 43.5°F6.4°C 41.6°F5.3°C 93% 3.0 mph W4.8 kmh W 4.0 mph6.4 kmh 29.42 in996.3 mb 0.00 in0.0 mm 0.00 in0.0 mm 0.06 in1.5 mm
05:44 PM 43.5°F6.4°C 41.6°F5.3°C 93% 4.0 mph W6.4 kmh W 6.0 mph9.7 kmh 29.42 in996.3 mb 0.00 in0.0 mm 0.00 in0.0 mm 0.06 in1.5 mm
05:49 PM 43.3°F6.3°C 41.5°F5.3°C 93% 5.0 mph W8.0 kmh W 8.0 mph12.9 kmh 29.42 in996.3 mb 0.00 in0.0 mm 0.00 in0.0 mm 0.06 in1.5 mm
05:54 PM 43.3°F6.3°C 41.5°F5.3°C 93% 4.0 mph W6.4 kmh W 7.0 mph11.3 kmh 29.43 in996.6 mb 0.00 in0.0 mm 0.00 in0.0 mm 0.06 in1.5 mm
05:59 PM 43.3°F6.3°C 41.5°F5.3°C 93% 4.0 mph W6.4 kmh W 7.0 mph11.3 kmh 29.42 in996.3 mb 0.00 in0.0 mm 0.00 in0.0 mm 0.07 in1.8 mm
06:04 PM 43.3°F6.3°C 41.5°F5.3°C 93% 5.0 mph W8.0 kmh W 9.0 mph14.5 kmh 29.42 in996.3 mb 0.00 in0.0 mm 0.00 in0.0 mm 0.07 in1.8 mm
06:09 PM 43.3°F6.3°C 41.7°F5.4°C 94% 6.0 mph W9.7 kmh W 8.0 mph12.9 kmh 29.43 in996.6 mb 0.00 in0.0 mm 0.00 in0.0 mm 0.07 in1.8 mm
06:14 PM 43.2°F6.2°C 41.6°F5.3°C 94% 5.0 mph W8.0 kmh W 9.0 mph14.5 kmh 29.43 in996.6 mb 0.00 in0.0 mm 0.00 in0.0 mm 0.07 in1.8 mm
06:19 PM 43.2°F6.2°C 41.6°F5.3°C 94% 3.0 mph W4.8 kmh W 7.0 mph11.3 kmh 29.43 in996.6 mb 0.00 in0.0 mm 0.00 in0.0 mm 0.08 in2.0 mm
06:24 PM 43.2°F6.2°C 41.6°F5.3°C 94% 6.0 mph W9.7 kmh W 9.0 mph14.5 kmh 29.43 in996.6 mb 0.00 in0.0 mm 0.00 in0.0 mm 0.08 in2.0 mm
06:29 PM 43.0°F6.1°C 41.4°F5.2°C 94% 4.0 mph WSW6.4 kmh WSW 8.0 mph12.9 kmh 29.43 in996.6 mb 0.00 in0.0 mm 0.00 in0.0 mm 0.08 in2.0 mm
06:34 PM 43.0°F6.1°C 41.4°F5.2°C 94% 2.0 mph S3.2 kmh S 5.0 mph8.0 kmh 29.43 in996.6 mb 0.00 in0.0 mm 0.00 in0.0 mm 0.09 in2.3 mm
06:39 PM 43.0°F6.1°C 41.4°F5.2°C 94% 3.0 mph SSW4.8 kmh SSW 5.0 mph8.0 kmh 29.43 in996.6 mb 0.00 in0.0 mm 0.00 in0.0 mm 0.09 in2.3 mm
06:44 PM 42.8°F6.0°C 41.2°F5.1°C 94% 4.0 mph SW6.4 kmh SW 5.0 mph8.0 kmh 29.43 in996.6 mb 0.00 in0.0 mm 0.00 in0.0 mm 0.09 in2.3 mm
06:49 PM 42.6°F5.9°C 41.0°F5.0°C 94% 3.0 mph SSW4.8 kmh SSW 4.0 mph6.4 kmh 29.43 in996.6 mb 0.00 in0.0 mm 0.00 in0.0 mm 0.09 in2.3 mm
06:54 PM 42.6°F5.9°C 40.7°F4.8°C 93% Calm Calm 2.0 mph3.2 kmh 29.43 in996.6 mb 0.00 in0.0 mm 0.00 in0.0 mm 0.09 in2.3 mm
06:59 PM 42.6°F5.9°C 40.7°F4.8°C 93% 3.0 mph WSW4.8 kmh WSW 4.0 mph6.4 kmh 29.44 in997.0 mb 0.00 in0.0 mm 0.00 in0.0 mm 0.09 in2.3 mm
07:04 PM 42.6°F5.9°C 40.7°F4.8°C 93% 4.0 mph WSW6.4 kmh WSW 8.0 mph12.9 kmh 29.44 in997.0 mb 0.00 in0.0 mm 0.00 in0.0 mm 0.09 in2.3 mm
07:09 PM 42.6°F5.9°C 40.5°F4.7°C 92% 5.0 mph WSW8.0 kmh WSW 8.0 mph12.9 kmh 29.45 in997.3 mb 0.00 in0.0 mm 0.00 in0.0 mm 0.09 in2.3 mm
07:14 PM 42.6°F5.9°C 40.5°F4.7°C 92% 5.0 mph WSW8.0 kmh WSW 8.0 mph12.9 kmh 29.45 in997.3 mb 0.00 in0.0 mm 0.00 in0.0 mm 0.09 in2.3 mm
07:19 PM 42.8°F6.0°C 40.6°F4.8°C 92% 5.0 mph W8.0 kmh W 7.0 mph11.3 kmh 29.45 in997.3 mb 0.00 in0.0 mm 0.00 in0.0 mm 0.09 in2.3 mm
07:24 PM 42.8°F6.0°C 40.6°F4.8°C 92% 6.0 mph W9.7 kmh W 9.0 mph14.5 kmh 29.45 in997.3 mb 0.00 in0.0 mm 0.00 in0.0 mm 0.09 in2.3 mm
07:29 PM 43.0°F6.1°C 40.5°F4.7°C 91% 4.0 mph WSW6.4 kmh WSW 7.0 mph11.3 kmh 29.46 in997.6 mb 0.00 in0.0 mm 0.00 in0.0 mm 0.09 in2.3 mm
07:34 PM 43.0°F6.1°C 40.5°F4.7°C 91% 3.0 mph SW4.8 kmh SW 7.0 mph11.3 kmh 29.46 in997.6 mb 0.00 in0.0 mm 0.00 in0.0 mm 0.09 in2.3 mm
07:39 PM 43.0°F6.1°C 40.5°F4.7°C 91% 5.0 mph W8.0 kmh W 10.0 mph16.1 kmh 29.46 in997.6 mb 0.00 in0.0 mm 0.00 in0.0 mm 0.09 in2.3 mm
07:44 PM 43.0°F6.1°C 40.5°F4.7°C 91% 7.0 mph WSW11.3 kmh WSW 9.0 mph14.5 kmh 29.46 in997.6 mb 0.00 in0.0 mm 0.00 in0.0 mm 0.09 in2.3 mm
07:49 PM 43.2°F6.2°C 40.7°F4.8°C 91% 6.0 mph WSW9.7 kmh WSW 10.0 mph16.1 kmh 29.46 in997.6 mb 0.00 in0.0 mm 0.00 in0.0 mm 0.09 in2.3 mm
07:54 PM 43.2°F6.2°C 40.7°F4.8°C 91% 4.0 mph SW6.4 kmh SW 7.0 mph11.3 kmh 29.46 in997.6 mb 0.00 in0.0 mm 0.00 in0.0 mm 0.09 in2.3 mm
07:59 PM 43.2°F6.2°C 40.7°F4.8°C 91% 3.0 mph SW4.8 kmh SW 7.0 mph11.3 kmh 29.46 in997.6 mb 0.00 in0.0 mm 0.00 in0.0 mm 0.09 in2.3 mm
08:04 PM 43.2°F6.2°C 40.7°F4.8°C 91% 4.0 mph SW6.4 kmh SW 7.0 mph11.3 kmh 29.47 in998.0 mb 0.00 in0.0 mm 0.00 in0.0 mm 0.09 in2.3 mm
08:09 PM 43.2°F6.2°C 40.7°F4.8°C 91% 3.0 mph SW4.8 kmh SW 5.0 mph8.0 kmh 29.47 in998.0 mb 0.00 in0.0 mm 0.00 in0.0 mm 0.09 in2.3 mm
08:14 PM 43.2°F6.2°C 40.4°F4.7°C 90% 5.0 mph W8.0 kmh W 8.0 mph12.9 kmh 29.47 in998.0 mb 0.00 in0.0 mm 0.00 in0.0 mm 0.09 in2.3 mm
08:19 PM 43.3°F6.3°C 40.9°F4.9°C 91% 2.0 mph SW3.2 kmh SW 4.0 mph6.4 kmh 29.48 in998.3 mb 0.00 in0.0 mm 0.00 in0.0 mm 0.09 in2.3 mm
08:24 PM 43.3°F6.3°C 40.9°F4.9°C 91% 4.0 mph W6.4 kmh W 11.0 mph17.7 kmh 29.48 in998.3 mb 0.00 in0.0 mm 0.00 in0.0 mm 0.09 in2.3 mm
08:29 PM 43.3°F6.3°C 40.9°F4.9°C 91% 5.0 mph WSW8.0 kmh WSW 9.0 mph14.5 kmh 29.49 in998.6 mb 0.00 in0.0 mm 0.00 in0.0 mm 0.09 in2.3 mm
08:34 PM 43.3°F6.3°C 40.9°F4.9°C 91% 4.0 mph SSW6.4 kmh SSW 6.0 mph9.7 kmh 29.49 in998.6 mb 0.00 in0.0 mm 0.00 in0.0 mm 0.09 in2.3 mm
08:39 PM 43.3°F6.3°C 40.9°F4.9°C 91% 9.0 mph W14.5 kmh W 12.0 mph19.3 kmh 29.49 in998.6 mb 0.00 in0.0 mm 0.00 in0.0 mm 0.09 in2.3 mm
08:44 PM 43.5°F6.4°C 40.8°F4.9°C 90% 7.0 mph WSW11.3 kmh WSW 10.0 mph16.1 kmh 29.49 in998.6 mb 0.00 in0.0 mm 0.00 in0.0 mm 0.09 in2.3 mm
08:49 PM 43.9°F6.6°C 41.1°F5.1°C 90% 7.0 mph WSW11.3 kmh WSW 10.0 mph16.1 kmh 29.49 in998.6 mb 0.00 in0.0 mm 0.00 in0.0 mm 0.09 in2.3 mm
08:54 PM 43.9°F6.6°C 41.1°F5.1°C 90% 7.0 mph WSW11.3 kmh WSW 10.0 mph16.1 kmh 29.49 in998.6 mb 0.00 in0.0 mm 0.00 in0.0 mm 0.09 in2.3 mm
08:59 PM 43.9°F6.6°C 41.1°F5.1°C 90% 9.0 mph WSW14.5 kmh WSW 14.0 mph22.5 kmh 29.49 in998.6 mb 0.00 in0.0 mm 0.00 in0.0 mm 0.09 in2.3 mm
09:04 PM 43.9°F6.6°C 41.1°F5.1°C 90% 8.0 mph W12.9 kmh W 11.0 mph17.7 kmh 29.50 in999.0 mb 0.00 in0.0 mm 0.00 in0.0 mm 0.09 in2.3 mm
09:09 PM 44.1°F6.7°C 41.3°F5.2°C 90% 10.0 mph WSW16.1 kmh WSW 13.0 mph20.9 kmh 29.50 in999.0 mb 0.00 in0.0 mm 0.00 in0.0 mm 0.09 in2.3 mm
09:14 PM 44.1°F6.7°C 41.3°F5.2°C 90% 8.0 mph W12.9 kmh W 12.0 mph19.3 kmh 29.50 in999.0 mb 0.00 in0.0 mm 0.00 in0.0 mm 0.09 in2.3 mm
09:19 PM 44.1°F6.7°C 41.3°F5.2°C 90% 5.0 mph W8.0 kmh W 7.0 mph11.3 kmh 29.50 in999.0 mb 0.00 in0.0 mm 0.00 in0.0 mm 0.09 in2.3 mm
09:24 PM 44.1°F6.7°C 41.6°F5.3°C 91% 3.0 mph WSW4.8 kmh WSW 6.0 mph9.7 kmh 29.51 in999.3 mb 0.00 in0.0 mm 0.00 in0.0 mm 0.09 in2.3 mm
09:29 PM 44.1°F6.7°C 41.6°F5.3°C 91% 7.0 mph WSW11.3 kmh WSW 12.0 mph19.3 kmh 29.51 in999.3 mb 0.00 in0.0 mm 0.00 in0.0 mm 0.09 in2.3 mm
09:34 PM 43.9°F6.6°C 41.1°F5.1°C 90% 5.0 mph WSW8.0 kmh WSW 10.0 mph16.1 kmh 29.51 in999.3 mb 0.00 in0.0 mm 0.00 in0.0 mm 0.09 in2.3 mm
09:39 PM 43.9°F6.6°C 41.1°F5.1°C 90% 5.0 mph W8.0 kmh W 7.0 mph11.3 kmh 29.52 in999.7 mb 0.00 in0.0 mm 0.00 in0.0 mm 0.09 in2.3 mm
09:44 PM 43.9°F6.6°C 41.1°F5.1°C 90% 6.0 mph WSW9.7 kmh WSW 10.0 mph16.1 kmh 29.52 in999.7 mb 0.00 in0.0 mm 0.00 in0.0 mm 0.09 in2.3 mm
09:49 PM 43.9°F6.6°C 41.1°F5.1°C 90% 9.0 mph WSW14.5 kmh WSW 14.0 mph22.5 kmh 29.52 in999.7 mb 0.00 in0.0 mm 0.00 in0.0 mm 0.09 in2.3 mm
09:54 PM 43.9°F6.6°C 40.9°F4.9°C 89% 10.0 mph W16.1 kmh W 13.0 mph20.9 kmh 29.53 in1000.0 mb 0.00 in0.0 mm 0.00 in0.0 mm 0.09 in2.3 mm
09:59 PM 43.7°F6.5°C 40.4°F4.7°C 88% 10.0 mph W16.1 kmh W 16.0 mph25.7 kmh 29.53 in1000.0 mb 0.00 in0.0 mm 0.00 in0.0 mm 0.09 in2.3 mm
10:04 PM 43.5°F6.4°C 40.2°F4.6°C 88% 8.0 mph WSW12.9 kmh WSW 11.0 mph17.7 kmh 29.53 in1000.0 mb 0.00 in0.0 mm 0.00 in0.0 mm 0.09 in2.3 mm
10:09 PM 43.7°F6.5°C 40.1°F4.5°C 87% 6.0 mph SW9.7 kmh SW 12.0 mph19.3 kmh 29.54 in1000.3 mb 0.00 in0.0 mm 0.00 in0.0 mm 0.09 in2.3 mm
10:14 PM 43.7°F6.5°C 39.8°F4.3°C 86% 7.0 mph W11.3 kmh W 9.0 mph14.5 kmh 29.54 in1000.3 mb 0.00 in0.0 mm 0.00 in0.0 mm 0.09 in2.3 mm
10:19 PM 43.9°F6.6°C 40.3°F4.6°C 87% 10.0 mph WSW16.1 kmh WSW 15.0 mph24.1 kmh 29.54 in1000.3 mb 0.00 in0.0 mm 0.00 in0.0 mm 0.09 in2.3 mm
10:24 PM 44.1°F6.7°C 40.7°F4.8°C 88% 5.0 mph WSW8.0 kmh WSW 7.0 mph11.3 kmh 29.54 in1000.3 mb 0.00 in0.0 mm 0.00 in0.0 mm 0.09 in2.3 mm
10:29 PM 44.1°F6.7°C 41.0°F5.0°C 89% 8.0 mph WSW12.9 kmh WSW 11.0 mph17.7 kmh 29.54 in1000.3 mb 0.00 in0.0 mm 0.00 in0.0 mm 0.09 in2.3 mm
10:34 PM 44.1°F6.7°C 41.3°F5.2°C 90% 7.0 mph W11.3 kmh W 12.0 mph19.3 kmh 29.54 in1000.3 mb 0.00 in0.0 mm 0.00 in0.0 mm 0.09 in2.3 mm
10:39 PM 44.1°F6.7°C 41.3°F5.2°C 90% 8.0 mph WSW12.9 kmh WSW 13.0 mph20.9 kmh 29.54 in1000.3 mb 0.00 in0.0 mm 0.00 in0.0 mm 0.09 in2.3 mm
10:44 PM 44.1°F6.7°C 41.3°F5.2°C 90% 10.0 mph WSW16.1 kmh WSW 14.0 mph22.5 kmh 29.55 in1000.7 mb 0.00 in0.0 mm 0.00 in0.0 mm 0.09 in2.3 mm
10:49 PM 44.1°F6.7°C 41.6°F5.3°C 91% 7.0 mph W11.3 kmh W 9.0 mph14.5 kmh 29.55 in1000.7 mb 0.00 in0.0 mm 0.00 in0.0 mm 0.09 in2.3 mm
10:54 PM 43.9°F6.6°C 41.4°F5.2°C 91% 12.0 mph W19.3 kmh W 14.0 mph22.5 kmh 29.55 in1000.7 mb 0.00 in0.0 mm 0.00 in0.0 mm 0.09 in2.3 mm
10:59 PM 43.7°F6.5°C 41.3°F5.2°C 91% 10.0 mph WSW16.1 kmh WSW 14.0 mph22.5 kmh 29.56 in1001.0 mb 0.00 in0.0 mm 0.00 in0.0 mm 0.09 in2.3 mm
11:04 PM 43.5°F6.4°C 41.1°F5.1°C 91% 8.0 mph W12.9 kmh W 11.0 mph17.7 kmh 29.56 in1001.0 mb 0.00 in0.0 mm 0.00 in0.0 mm 0.09 in2.3 mm
11:14 PM 43.5°F6.4°C 40.8°F4.9°C 90% 7.0 mph W11.3 kmh W 12.0 mph19.3 kmh 29.57 in1001.4 mb 0.00 in0.0 mm 0.00 in0.0 mm 0.09 in2.3 mm
11:19 PM 43.7°F6.5°C 41.0°F5.0°C 90% 7.0 mph WSW11.3 kmh WSW 11.0 mph17.7 kmh 29.57 in1001.4 mb 0.00 in0.0 mm 0.00 in0.0 mm 0.09 in2.3 mm
11:24 PM 43.7°F6.5°C 41.0°F5.0°C 90% 8.0 mph W12.9 kmh W 12.0 mph19.3 kmh 29.57 in1001.4 mb 0.00 in0.0 mm 0.00 in0.0 mm 0.09 in2.3 mm
11:29 PM 43.7°F6.5°C 41.0°F5.0°C 90% 6.0 mph W9.7 kmh W 10.0 mph16.1 kmh 29.57 in1001.4 mb 0.00 in0.0 mm 0.00 in0.0 mm 0.09 in2.3 mm
11:34 PM 43.9°F6.6°C 41.1°F5.1°C 90% 5.0 mph W8.0 kmh W 8.0 mph12.9 kmh 29.57 in1001.4 mb 0.00 in0.0 mm 0.00 in0.0 mm 0.09 in2.3 mm
11:39 PM 43.9°F6.6°C 41.1°F5.1°C 90% 4.0 mph SW6.4 kmh SW 7.0 mph11.3 kmh 29.57 in1001.4 mb 0.00 in0.0 mm 0.00 in0.0 mm 0.09 in2.3 mm
11:44 PM 44.1°F6.7°C 41.3°F5.2°C 90% 6.0 mph WSW9.7 kmh WSW 10.0 mph16.1 kmh 29.57 in1001.4 mb 0.00 in0.0 mm 0.00 in0.0 mm 0.09 in2.3 mm
11:49 PM 44.1°F6.7°C 41.3°F5.2°C 90% 4.0 mph SW6.4 kmh SW 8.0 mph12.9 kmh 29.57 in1001.4 mb 0.00 in0.0 mm 0.00 in0.0 mm 0.09 in2.3 mm
11:54 PM 44.1°F6.7°C 41.3°F5.2°C 90% 6.0 mph W9.7 kmh W 11.0 mph17.7 kmh 29.57 in1001.4 mb 0.00 in0.0 mm 0.00 in0.0 mm 0.09 in2.3 mm
11:59 PM 44.2°F6.8°C 41.5°F5.3°C 90% 5.0 mph SW8.0 kmh SW 10.0 mph16.1 kmh 29.58 in1001.7 mb 0.00 in0.0 mm 0.00 in0.0 mm 0.09 in2.3 mm